Flight Track Log - Related Links

Times and Time Zones

All times are in EST time to prevent confusion due to time zone crossing. See the XA-ZAC flight status page for this flight to view local times or setup timezone preferences in your user account.

Time Position Orientation Groundspeed Altitude Reporting Facility
EST Latitude Longitude Course Direction KTS MPH feet Rate Location/Type
Fri 11:44:00 AM 28.5229 -105.5797 118° Southeast  Level Estimated
Fri 11:45:00 AM 28.4868 -105.5029 118° Southeast  Level Estimated
Fri 11:46:00 AM 28.4507 -105.4262 118° Southeast  Level Estimated
Fri 11:47:00 AM 28.4145 -105.3495 118° Southeast  Level Estimated
Fri 11:48:00 AM 28.3782 -105.2728 118° Southeast  Level Estimated
Fri 11:49:00 AM 28.3419 -105.1962 118° Southeast  Level Estimated
Fri 11:50:00 AM 28.3056 -105.1197 118° Southeast  Level Estimated
Fri 11:51:00 AM 28.2692 -105.0432 118° Southeast  Level Estimated
Fri 11:52:00 AM 28.2328 -104.9668 118° Southeast  Level Estimated
Fri 11:53:00 AM 28.1963 -104.8904 118° Southeast  Level Estimated
Fri 11:54:00 AM 28.1598 -104.8140 118° Southeast  Level Estimated
Fri 11:55:00 AM 28.1233 -104.7377 118° Southeast  Level Estimated
Fri 11:56:00 AM 28.0867 -104.6615 119° Southeast  Level Estimated
Fri 11:57:00 AM 28.0501 -104.5853 119° Southeast  Level Estimated
Fri 11:58:00 AM 28.0134 -104.5092 119° Southeast  Level Estimated
Fri 11:59:00 AM 27.9767 -104.4331 119° Southeast  Level Estimated
Fri 12:00:00 PM 27.9400 -104.3571 119° Southeast  Level Estimated
Fri 12:01:00 PM 27.9032 -104.2811 119° Southeast  Level Estimated
Fri 12:02:00 PM 27.8663 -104.2052 119° Southeast  Level Estimated
Fri 12:03:00 PM 27.8294 -104.1293 119° Southeast  Level Estimated
Fri 12:04:00 PM 27.7925 -104.0535 119° Southeast  Level Estimated
Fri 12:05:00 PM 27.7556 -103.9778 119° Southeast  Level Estimated
Fri 12:06:00 PM 27.7185 -103.9020 119° Southeast  Level Estimated
Fri 12:07:00 PM 27.6815 -103.8264 119° Southeast  Level Estimated
Fri 12:08:00 PM 27.6444 -103.7508 119° Southeast  Level Estimated
Fri 12:09:00 PM 27.6073 -103.6752 119° Southeast  Level Estimated
Fri 12:10:00 PM 27.5701 -103.5997 119° Southeast  Level Estimated
Fri 12:11:00 PM 27.5329 -103.5242 119° Southeast  Level Estimated
Fri 12:12:00 PM 27.4956 -103.4488 119° Southeast  Level Estimated
Fri 12:13:00 PM 27.4584 -103.3735 119° Southeast  Level Estimated
Fri 12:14:00 PM 27.4210 -103.2982 119° Southeast  Level Estimated
Fri 12:15:00 PM 27.3837 -103.2229 119° Southeast  Level Estimated
Fri 12:16:00 PM 27.3463 -103.1477 119° Southeast  Level Estimated
Fri 12:17:00 PM 27.3088 -103.0726 119° Southeast  Level Estimated
Fri 12:18:00 PM 27.2713 -102.9975 119° Southeast  Level Estimated
Fri 12:19:00 PM 27.2338 -102.9224 119° Southeast  Level Estimated
Fri 12:20:00 PM 27.1962 -102.8474 119° Southeast  Level Estimated
Fri 12:21:00 PM 27.1586 -102.7725 119° Southeast  Level Estimated
Fri 12:22:00 PM 27.1210 -102.6976 119° Southeast  Level Estimated
Fri 12:23:00 PM 27.0833 -102.6227 119° Southeast  Level Estimated
Fri 12:24:00 PM 27.0455 -102.5479 120° Southeast  Level Estimated
Fri 12:25:00 PM 27.0078 -102.4732 120° Southeast  Level Estimated
Fri 12:26:00 PM 26.9699 -102.3985 120° Southeast  Level Estimated
Fri 12:27:00 PM 26.9321 -102.3238 120° Southeast  Level Estimated
Fri 12:28:00 PM 26.8942 -102.2492 120° Southeast  Level Estimated
Fri 12:29:00 PM 26.8563 -102.1747 120° Southeast  Level Estimated
Fri 12:30:00 PM 26.8183 -102.1002 120° Southeast  Level Estimated
Fri 12:31:00 PM 26.7803 -102.0257 120° Southeast  Level Estimated
Fri 12:32:00 PM 26.7423 -101.9513 120° Southeast  Level Estimated
Fri 12:33:00 PM 26.7042 -101.8770 120° Southeast  Level Estimated
Fri 12:34:00 PM 26.6661 -101.8027 120° Southeast  Level Estimated
Fri 12:35:00 PM 26.6279 -101.7284 120° Southeast  Level Estimated
Fri 12:36:00 PM 26.5897 -101.6542 120° Southeast  Level Estimated
Fri 12:37:00 PM 26.5515 -101.5801 120° Southeast  Level Estimated
Fri 12:38:00 PM 26.5132 -101.5060 120° Southeast  Level Estimated
Fri 12:39:00 PM 26.4749 -101.4319 120° Southeast  Level Estimated
Fri 12:40:00 PM 26.4365 -101.3579 120° Southeast  Level Estimated
Fri 12:41:00 PM 26.3981 -101.2840 120° Southeast  Level Estimated
Fri 12:42:00 PM 26.3597 -101.2101 120° Southeast  Level Estimated
Fri 12:43:00 PM 26.3212 -101.1362 120° Southeast  Level Estimated
Fri 12:44:00 PM 26.2827 -101.0624 120° Southeast  Level Estimated
Fri 12:45:00 PM 26.2442 -100.9887 120° Southeast  Level Estimated
Fri 12:46:00 PM 26.2056 -100.9150 120° Southeast  Level Estimated
Fri 12:47:00 PM 26.1670 -100.8413 120° Southeast  Level Estimated
Fri 12:48:00 PM 26.1283 -100.7677 120° Southeast  Level Estimated
Fri 12:49:00 PM 26.0896 -100.6941 120° Southeast  Level Estimated
Fri 12:50:00 PM 26.0509 -100.6206 120° Southeast  Level Estimated
Fri 12:51:00 PM 26.0121 -100.5472 120° Southeast  Level Estimated
Fri 12:52:00 PM 25.9734 -100.4738 120° Southeast  Level Estimated
Fri 12:53:00 PM 25.9345 -100.4004 120° Southeast  Level Estimated
Fri 12:54:00 PM 25.8956 -100.3271 121° Southeast  Level Estimated
Fri 12:55:00 PM 25.8567 -100.2538 121° Southeast  Level Estimated
Fri 12:56:00 PM 25.8178 -100.1806 121° Southeast  Level Estimated
Fri 12:57:00 PM 25.7788 -100.1074 121° Southeast  Level Estimated
Fri 12:58:00 PM 25.7785 -100.1069 120° Southeast  Level Estimated
Fri 12:59:00 PM 25.7785 -100.1069 119° Southeast  Level Estimated
Fri 01:00:00 PM 25.7785 -100.1069 119° Southeast  Level Estimated
Fri 01:01:00 PM 25.7785 -100.1069 119° Southeast  Level Estimated
Fri 01:02:00 PM 25.7785 -100.1069 119° Southeast  Level Estimated
Fri 01:03:00 PM 25.7785 -100.1069 119° Southeast  Level Estimated
Fri 01:04:00 PM 25.7785 -100.1069 119° Southeast  Level Estimated
Fri 01:05:00 PM 25.7785 -100.1069 119° Southeast  Level Estimated
Fri 01:06:00 PM 25.7785 -100.1069 119° Southeast  Level Estimated
Fri 01:07:00 PM 25.7785 -100.1069 119° Southeast  Level Estimated
Fri 01:08:00 PM 25.7785 -100.1069 119° Southeast  Level Estimated
Fri 01:09:00 PM 25.7785 -100.1069 119° Southeast  Level Estimated
Fri 01:10:00 PM 25.7785 -100.1069 119° Southeast  Level Estimated
Fri 01:11:00 PM 25.7785 -100.1069 119° Southeast  Level Estimated
Fri 01:12:00 PM 25.7785 -100.1069 119° Southeast  Level Estimated
Fri 01:13:00 PM 25.7785 -100.1069 119° Southeast  Level Estimated

Login

Don't have an account? Register now (free) for customized features, flight alerts, and more!